Time;durP1;ratioP1;P1;durP2;ratioP2;P2;SDS_P1;SDS_P2;PMS_P1;PMS_P2;Temp;Humidity;BMP_temperature;BMP_pressure;BME280_temperature;BME280_humidity;BME280_pressure;Samples;Min_cycle;Max_cycle;Signal;HPM_P1;HPM_P2
2022/01/14 00:01:30;;;;;;;39.15;16.38;;;;;;;;;;4993014;28;20467;-36
2022/01/14 00:03:55;;;;;;;42.67;18.10;;;;;;;;;;4992476;28;20030;-36
2022/01/14 00:06:20;;;;;;;39.47;16.67;;;;;;;;;;4993156;28;20419;-38
2022/01/14 00:08:46;;;;;;;39.03;16.98;;;;;;;;;;4993042;28;20550;-36
2022/01/14 00:11:16;;;;;;;43.25;17.73;;;;;;;;;;4993069;28;20030;-36
2022/01/14 00:16:10;;;;;;;39.25;17.33;;;;;;;;;;4993003;28;20470;-36
2022/01/14 00:18:36;;;;;;;42.17;18.52;;;;;;;;;;4993037;28;20058;-37
2022/01/14 00:21:02;;;;;;;43.92;18.27;;;;;;;;;;4993230;28;20113;-36
2022/01/14 00:23:32;;;;;;;45.53;18.15;;;;;;;;;;4992975;28;20019;-39
2022/01/14 00:31:38;;;;;;;35.03;15.00;;;;;;;;;;4993163;28;20049;-39
2022/01/14 00:34:04;;;;;;;21.05;10.55;;;;;;;;;;4993202;28;20382;-36
2022/01/14 00:36:30;;;;;;;28.08;14.55;;;;;;;;;;4992968;28;20022;-36
2022/01/14 00:38:58;;;;;;;45.15;17.23;;;;;;;;;;4992804;28;20033;-46
2022/01/14 00:41:24;;;;;;;29.98;13.02;;;;;;;;;;4991541;28;20541;-36
2022/01/14 00:43:55;;;;;;;30.98;14.88;;;;;;;;;;4991531;28;20130;-37
2022/01/14 00:46:20;;;;;;;39.17;16.40;;;;;;;;;;4991709;28;20022;-35
2022/01/14 00:48:46;;;;;;;29.15;11.85;;;;;;;;;;4992776;28;20023;-37
2022/01/14 00:51:11;;;;;;;38.85;15.75;;;;;;;;;;4992905;28;20027;-39
2022/01/14 00:53:36;;;;;;;37.63;17.05;;;;;;;;;;4992649;28;20037;-36
2022/01/14 00:56:19;;;;;;;33.47;16.17;;;;;;;;;;4992485;28;20046;-37
2022/01/14 01:01:28;;;;;;;30.65;13.95;;;;;;;;;;4991862;28;20069;-45
2022/01/14 01:03:53;;;;;;;33.97;15.75;;;;;;;;;;4992534;28;20058;-40
2022/01/14 01:06:20;;;;;;;33.22;14.60;;;;;;;;;;4992800;28;20047;-37
2022/01/14 01:08:48;;;;;;;36.28;15.30;;;;;;;;;;4992416;28;20032;-48
2022/01/14 01:11:13;;;;;;;34.17;14.73;;;;;;;;;;4990507;28;20037;-40
2022/01/14 01:13:47;;;;;;;24.20;12.88;;;;;;;;;;4991499;28;20390;-43
2022/01/14 01:16:12;;;;;;;27.40;11.95;;;;;;;;;;4995916;28;20529;-46
2022/01/14 01:18:38;;;;;;;21.85;10.52;;;;;;;;;;4995848;28;20117;-38
2022/01/14 01:21:03;;;;;;;28.45;13.40;;;;;;;;;;4995522;28;20053;-41
2022/01/14 01:23:29;;;;;;;28.20;13.27;;;;;;;;;;4996026;28;20029;-45
2022/01/14 01:26:02;;;;;;;20.02;10.48;;;;;;;;;;4995303;28;20046;-38
2022/01/14 01:28:28;;;;;;;26.15;12.25;;;;;;;;;;4995887;28;20034;-47
2022/01/14 01:31:34;;;;;;;29.10;13.95;;;;;;;;;;4994726;28;20026;-45
2022/01/14 01:33:48;;;;;;;40.20;14.23;;;;;;;;;;4993894;28;20394;-43
2022/01/14 01:36:13;;;;;;;37.75;14.68;;;;;;;;;;4993965;28;20030;-40
2022/01/14 01:38:38;;;;;;;28.17;12.52;;;;;;;;;;4994102;28;20031;-36
2022/01/14 01:41:05;;;;;;;35.47;13.30;;;;;;;;;;4993928;28;20030;-39
2022/01/14 01:43:31;;;;;;;24.45;12.05;;;;;;;;;;4993840;28;20039;-43
2022/01/14 01:45:58;;;;;;;33.03;12.88;;;;;;;;;;4994217;28;20033;-37
2022/01/14 01:48:24;;;;;;;29.05;13.10;;;;;;;;;;4995482;28;20096;-37
2022/01/14 01:50:49;;;;;;;31.58;13.43;;;;;;;;;;4995609;28;20057;-39
2022/01/14 01:53:15;;;;;;;33.20;15.20;;;;;;;;;;4995468;28;20026;-36
2022/01/14 01:55:41;;;;;;;27.02;11.48;;;;;;;;;;4995290;28;20622;-37
2022/01/14 01:58:06;;;;;;;29.33;13.40;;;;;;;;;;4995529;28;20152;-36
2022/01/14 02:00:32;;;;;;;34.58;13.85;;;;;;;;;;4995696;28;20459;-36
2022/01/14 02:02:59;;;;;;;32.42;12.73;;;;;;;;;;4995595;28;20030;-37
2022/01/14 02:05:25;;;;;;;28.35;12.57;;;;;;;;;;4995503;28;20033;-36
2022/01/14 02:07:50;;;;;;;24.98;12.48;;;;;;;;;;4995592;28;20034;-37
2022/01/14 02:10:16;;;;;;;22.52;9.70;;;;;;;;;;4995464;28;20026;-38
2022/01/14 02:12:50;;;;;;;33.00;13.25;;;;;;;;;;4995509;28;20394;-37
2022/01/14 02:23:05;;;;;;;33.85;14.88;;;;;;;;;;4995298;28;20037;-37
2022/01/14 02:25:30;;;;;;;18.23;9.93;;;;;;;;;;4994057;28;20041;-48
2022/01/14 02:28:01;;;;;;;28.55;13.00;;;;;;;;;;4995180;28;20030;-37
2022/01/14 02:30:29;;;;;;;22.83;11.07;;;;;;;;;;4995154;28;20057;-36
2022/01/14 02:32:54;;;;;;;25.95;10.77;;;;;;;;;;4994792;28;20066;-37
2022/01/14 02:35:20;;;;;;;22.42;11.32;;;;;;;;;;4994979;28;20054;-38
2022/01/14 02:37:46;;;;;;;27.73;12.07;;;;;;;;;;4994675;28;20033;-37
2022/01/14 02:40:12;;;;;;;29.75;12.45;;;;;;;;;;4994970;28;20027;-39
2022/01/14 02:42:38;;;;;;;30.15;13.48;;;;;;;;;;4994625;28;20026;-36
2022/01/14 02:45:07;;;;;;;21.27;9.90;;;;;;;;;;4994785;28;20110;-40
2022/01/14 02:47:32;;;;;;;24.25;10.63;;;;;;;;;;4994554;28;20169;-36
2022/01/14 02:49:58;;;;;;;40.08;14.30;;;;;;;;;;4994493;28;20109;-38
2022/01/14 02:52:41;;;;;;;36.97;14.10;;;;;;;;;;4994865;28;20112;-44
2022/01/14 02:55:16;;;;;;;27.65;12.90;;;;;;;;;;4993364;28;20038;-38
2022/01/14 02:57:49;;;;;;;32.30;12.23;;;;;;;;;;4993160;28;20394;-41
2022/01/14 03:00:17;;;;;;;36.00;14.40;;;;;;;;;;4994186;28;20023;-39
2022/01/14 03:02:45;;;;;;;34.00;15.55;;;;;;;;;;4994502;28;20117;-44
2022/01/14 03:05:11;;;;;;;30.42;13.10;;;;;;;;;;4992941;28;20026;-45
2022/01/14 03:07:38;;;;;;;30.00;13.23;;;;;;;;;;4994429;28;20026;-45
2022/01/14 03:10:05;;;;;;;34.38;13.88;;;;;;;;;;4994084;28;20390;-39
2022/01/14 03:12:30;;;;;;;29.27;13.80;;;;;;;;;;4992783;28;20026;-36
2022/01/14 03:14:56;;;;;;;28.02;12.15;;;;;;;;;;4993943;28;20037;-36
2022/01/14 03:17:21;;;;;;;23.20;11.10;;;;;;;;;;4993865;28;20027;-37
2022/01/14 03:19:48;;;;;;;33.42;13.98;;;;;;;;;;4993900;28;20038;-40
2022/01/14 03:22:30;;;;;;;26.80;11.90;;;;;;;;;;4993775;28;20036;-46
2022/01/14 03:27:21;;;;;;;24.83;12.40;;;;;;;;;;4993788;28;20054;-38
2022/01/14 03:29:47;;;;;;;32.92;11.07;;;;;;;;;;4994031;28;20037;-41
2022/01/14 03:32:13;;;;;;;29.15;11.95;;;;;;;;;;4993750;28;20100;-45
2022/01/14 03:34:38;;;;;;;25.23;11.95;;;;;;;;;;4993560;28;20478;-46
2022/01/14 03:37:04;;;;;;;24.08;10.13;;;;;;;;;;4992262;28;20022;-40
2022/01/14 03:39:30;;;;;;;27.77;12.30;;;;;;;;;;4993887;28;20022;-38
2022/01/14 03:41:56;;;;;;;30.40;11.85;;;;;;;;;;4993899;28;20037;-43
2022/01/14 03:44:21;;;;;;;35.25;15.27;;;;;;;;;;4993821;28;20418;-39
2022/01/14 03:46:47;;;;;;;34.78;12.55;;;;;;;;;;4993658;28;20030;-40
2022/01/14 03:49:13;;;;;;;33.75;14.07;;;;;;;;;;4992239;28;20034;-41
2022/01/14 03:51:39;;;;;;;34.30;14.27;;;;;;;;;;4993391;28;20109;-38
2022/01/14 03:54:05;;;;;;;31.75;12.70;;;;;;;;;;4993424;28;20022;-40
2022/01/14 03:56:31;;;;;;;34.83;14.48;;;;;;;;;;4993015;28;20065;-43
2022/01/14 03:58:56;;;;;;;37.75;14.10;;;;;;;;;;4993596;28;20026;-44
2022/01/14 04:01:22;;;;;;;32.88;12.85;;;;;;;;;;4993553;28;20403;-39
2022/01/14 04:03:49;;;;;;;22.52;10.73;;;;;;;;;;4993261;28;20030;-39
2022/01/14 04:06:15;;;;;;;33.28;12.48;;;;;;;;;;4993448;28;20081;-42
2022/01/14 04:08:41;;;;;;;29.42;12.40;;;;;;;;;;4993191;28;20053;-37
2022/01/14 04:11:07;;;;;;;35.05;11.93;;;;;;;;;;4993123;28;20046;-37
2022/01/14 04:13:43;;;;;;;31.27;12.40;;;;;;;;;;4993115;28;20038;-36
2022/01/14 04:16:09;;;;;;;26.00;12.35;;;;;;;;;;4993084;28;20164;-36
2022/01/14 04:18:34;;;;;;;30.25;12.38;;;;;;;;;;4993320;28;20038;-37
2022/01/14 04:21:00;;;;;;;27.60;12.30;;;;;;;;;;4993294;28;20037;-37
2022/01/14 04:23:26;;;;;;;32.05;13.90;;;;;;;;;;4993085;28;20398;-37
2022/01/14 04:25:53;;;;;;;31.67;13.32;;;;;;;;;;4993297;28;20026;-36
2022/01/14 04:28:20;;;;;;;31.40;12.10;;;;;;;;;;4993024;28;20084;-36
2022/01/14 04:30:47;;;;;;;28.30;12.93;;;;;;;;;;4992840;28;20033;-37
2022/01/14 04:33:12;;;;;;;30.67;11.93;;;;;;;;;;4993287;28;20478;-37
2022/01/14 04:35:38;;;;;;;28.13;11.80;;;;;;;;;;4992843;28;20117;-36
2022/01/14 04:38:04;;;;;;;28.75;12.90;;;;;;;;;;4993136;28;20109;-36
2022/01/14 04:40:30;;;;;;;28.63;12.48;;;;;;;;;;4993212;28;20054;-36
2022/01/14 04:42:58;;;;;;;31.40;12.95;;;;;;;;;;4993145;28;20046;-36
2022/01/14 04:47:53;;;;;;;28.50;11.32;;;;;;;;;;4993285;28;20493;-47
2022/01/14 04:50:20;;;;;;;32.83;12.75;;;;;;;;;;4996616;28;20057;-43
2022/01/14 04:52:47;;;;;;;21.10;10.95;;;;;;;;;;4996683;28;20066;-44
2022/01/14 04:55:16;;;;;;;31.23;12.48;;;;;;;;;;4996395;28;20492;-45
2022/01/14 04:57:43;;;;;;;25.67;12.57;;;;;;;;;;4996889;28;20073;-42
2022/01/14 05:00:11;;;;;;;24.63;10.40;;;;;;;;;;4996635;28;20026;-37
2022/01/14 05:02:37;;;;;;;28.52;12.25;;;;;;;;;;4996536;28;20115;-44
2022/01/14 05:05:07;;;;;;;23.67;11.52;;;;;;;;;;4996375;28;20030;-41
2022/01/14 05:07:33;;;;;;;26.73;12.48;;;;;;;;;;4996741;28;20030;-45
2022/01/14 05:12:31;;;;;;;28.10;12.02;;;;;;;;;;4996247;28;20026;-41
2022/01/14 05:14:57;;;;;;;24.40;11.60;;;;;;;;;;4996328;28;20048;-43
2022/01/14 05:17:22;;;;;;;25.70;12.35;;;;;;;;;;4996090;28;20557;-45
2022/01/14 05:19:49;;;;;;;27.50;11.88;;;;;;;;;;4996128;28;20102;-37
2022/01/14 05:22:14;;;;;;;25.73;11.20;;;;;;;;;;4996304;28;20065;-38
2022/01/14 05:24:40;;;;;;;23.50;10.02;;;;;;;;;;4996275;28;20058;-40
2022/01/14 05:27:06;;;;;;;31.10;11.20;;;;;;;;;;4995972;28;20030;-36
2022/01/14 05:29:31;;;;;;;30.33;12.23;;;;;;;;;;4996022;28;20038;-40
2022/01/14 05:32:02;;;;;;;27.50;11.45;;;;;;;;;;4996258;28;20030;-36
2022/01/14 05:34:29;;;;;;;26.08;11.70;;;;;;;;;;4995922;28;20364;-39
2022/01/14 05:36:55;;;;;;;22.52;11.73;;;;;;;;;;4995920;28;20035;-36
2022/01/14 05:39:20;;;;;;;25.23;11.98;;;;;;;;;;4994616;28;20022;-39
2022/01/14 05:41:47;;;;;;;27.75;13.07;;;;;;;;;;4996029;28;20117;-42
2022/01/14 05:44:12;;;;;;;22.45;11.52;;;;;;;;;;4996015;28;20034;-38
2022/01/14 05:46:38;;;;;;;27.02;12.48;;;;;;;;;;4996157;28;20041;-43
2022/01/14 05:49:04;;;;;;;24.30;11.73;;;;;;;;;;4995847;28;20030;-47
2022/01/14 05:51:30;;;;;;;25.65;12.35;;;;;;;;;;4995462;28;20371;-36
2022/01/14 05:53:55;;;;;;;30.83;12.90;;;;;;;;;;4995769;28;20030;-43
2022/01/14 05:56:21;;;;;;;29.00;12.95;;;;;;;;;;4995369;28;20073;-48
2022/01/14 05:58:47;;;;;;;26.63;12.32;;;;;;;;;;4995754;28;20033;-37
2022/01/14 06:01:12;;;;;;;27.25;12.40;;;;;;;;;;4994419;28;20049;-42
2022/01/14 06:03:37;;;;;;;27.15;12.25;;;;;;;;;;4995709;28;20386;-37
2022/01/14 06:06:03;;;;;;;29.30;11.63;;;;;;;;;;4995293;28;20437;-36
2022/01/14 06:08:28;;;;;;;26.95;11.95;;;;;;;;;;4995226;28;20122;-36
2022/01/14 06:10:53;;;;;;;27.90;11.88;;;;;;;;;;4995129;28;20080;-41
2022/01/14 06:13:19;;;;;;;32.33;12.63;;;;;;;;;;4995134;28;20058;-37
2022/01/14 06:15:44;;;;;;;28.20;12.57;;;;;;;;;;4995010;28;20041;-41
2022/01/14 06:18:10;;;;;;;26.50;11.35;;;;;;;;;;4995103;28;20065;-48
2022/01/14 06:20:35;;;;;;;29.70;12.20;;;;;;;;;;4995398;28;20038;-44
2022/01/14 06:23:00;;;;;;;24.27;10.82;;;;;;;;;;4994977;28;20478;-36
2022/01/14 06:25:26;;;;;;;23.80;11.18;;;;;;;;;;4995016;28;20030;-37
2022/01/14 06:27:51;;;;;;;26.52;11.70;;;;;;;;;;4993755;28;20030;-37
2022/01/14 06:30:17;;;;;;;24.65;11.68;;;;;;;;;;4994843;28;20109;-37
2022/01/14 06:32:42;;;;;;;32.97;12.65;;;;;;;;;;4995086;28;20125;-46
2022/01/14 06:35:13;;;;;;;26.83;11.43;;;;;;;;;;4994583;28;20114;-47
2022/01/14 06:37:40;;;;;;;23.40;11.55;;;;;;;;;;4994908;28;20474;-36
2022/01/14 06:40:06;;;;;;;22.50;10.70;;;;;;;;;;4994842;28;20042;-37
2022/01/14 06:42:32;;;;;;;27.55;12.43;;;;;;;;;;4994602;28;20390;-36
2022/01/14 06:44:58;;;;;;;29.50;12.23;;;;;;;;;;4993273;28;20462;-43
2022/01/14 06:47:24;;;;;;;25.17;12.05;;;;;;;;;;4994812;28;20113;-38
2022/01/14 06:49:50;;;;;;;25.38;11.98;;;;;;;;;;4994739;28;20046;-47
2022/01/14 06:52:15;;;;;;;31.55;12.57;;;;;;;;;;4994597;28;20114;-48
2022/01/14 06:54:41;;;;;;;24.58;12.02;;;;;;;;;;4994335;28;20505;-48
2022/01/14 06:57:06;;;;;;;26.27;12.73;;;;;;;;;;4994113;28;20149;-49
2022/01/14 06:59:32;;;;;;;25.42;12.00;;;;;;;;;;4994582;28;20031;-39
2022/01/14 07:01:57;;;;;;;24.08;12.13;;;;;;;;;;4994391;28;20383;-47
2022/01/14 07:04:23;;;;;;;27.83;12.30;;;;;;;;;;4994276;28;20041;-38
2022/01/14 07:06:48;;;;;;;31.55;13.23;;;;;;;;;;4994359;28;20030;-46
2022/01/14 07:09:14;;;;;;;22.17;12.55;;;;;;;;;;4994322;28;20049;-44
2022/01/14 07:11:39;;;;;;;23.65;13.13;;;;;;;;;;4993748;28;20019;-37
2022/01/14 07:14:06;;;;;;;22.35;12.90;;;;;;;;;;4994008;28;20060;-45
2022/01/14 07:16:33;;;;;;;28.67;13.50;;;;;;;;;;4993865;28;20034;-47
2022/01/14 07:19:00;;;;;;;26.30;13.80;;;;;;;;;;4994024;28;20102;-37
2022/01/14 07:21:25;;;;;;;29.15;13.57;;;;;;;;;;4993921;28;20478;-43
2022/01/14 07:23:51;;;;;;;24.98;12.52;;;;;;;;;;4994147;28;20097;-39
2022/01/14 07:26:17;;;;;;;29.10;13.20;;;;;;;;;;4993855;28;20062;-40
2022/01/14 07:28:42;;;;;;;21.20;12.10;;;;;;;;;;4993745;28;20034;-37
2022/01/14 07:31:08;;;;;;;23.40;12.65;;;;;;;;;;4993944;28;20022;-40
2022/01/14 07:33:33;;;;;;;23.42;12.23;;;;;;;;;;4993910;28;20029;-42
2022/01/14 07:35:59;;;;;;;24.25;12.80;;;;;;;;;;4993846;28;20065;-38
2022/01/14 07:38:24;;;;;;;24.92;13.30;;;;;;;;;;4993969;28;20029;-38
2022/01/14 07:40:50;;;;;;;24.10;12.68;;;;;;;;;;4993824;28;20364;-37
2022/01/14 07:43:16;;;;;;;27.10;14.27;;;;;;;;;;4993684;28;20034;-38
2022/01/14 07:45:41;;;;;;;22.08;12.13;;;;;;;;;;4993897;28;20097;-38
2022/01/14 07:48:07;;;;;;;22.15;12.35;;;;;;;;;;4992200;28;20490;-38
2022/01/14 07:50:32;;;;;;;22.63;12.35;;;;;;;;;;4993399;28;20040;-39
2022/01/14 07:52:58;;;;;;;23.60;13.52;;;;;;;;;;4993598;28;20082;-40
2022/01/14 07:55:23;;;;;;;26.85;13.35;;;;;;;;;;4993164;28;20084;-38
2022/01/14 07:57:49;;;;;;;23.10;13.38;;;;;;;;;;4993601;28;20085;-39
2022/01/14 08:00:15;;;;;;;24.73;14.13;;;;;;;;;;4993759;28;20022;-41
2022/01/14 08:02:40;;;;;;;28.27;14.60;;;;;;;;;;4993508;28;20032;-40
2022/01/14 08:05:06;;;;;;;25.85;13.93;;;;;;;;;;4993318;28;20122;-38
2022/01/14 08:07:34;;;;;;;25.80;12.98;;;;;;;;;;4993182;28;20478;-39
2022/01/14 08:09:59;;;;;;;23.58;13.25;;;;;;;;;;4993550;28;20029;-38
2022/01/14 08:12:25;;;;;;;23.13;13.32;;;;;;;;;;4993522;28;20030;-38
2022/01/14 08:14:50;;;;;;;27.23;13.57;;;;;;;;;;4993175;28;20061;-38
2022/01/14 08:17:19;;;;;;;22.35;12.93;;;;;;;;;;4993191;28;20484;-39
2022/01/14 08:19:44;;;;;;;23.80;14.20;;;;;;;;;;4993006;28;20027;-38
2022/01/14 08:22:09;;;;;;;24.08;13.40;;;;;;;;;;4993495;28;20029;-38
2022/01/14 08:24:36;;;;;;;25.35;14.35;;;;;;;;;;4992449;28;20053;-45
2022/01/14 08:27:02;;;;;;;22.13;13.30;;;;;;;;;;4993505;28;20101;-43
2022/01/14 08:29:28;;;;;;;22.25;13.35;;;;;;;;;;4993345;28;20372;-49
2022/01/14 08:31:55;;;;;;;24.13;14.35;;;;;;;;;;4993430;28;20038;-48
2022/01/14 08:34:21;;;;;;;22.67;12.98;;;;;;;;;;4993462;28;20026;-39
2022/01/14 08:36:47;;;;;;;24.33;13.80;;;;;;;;;;4993232;28;20444;-38
2022/01/14 08:39:13;;;;;;;22.15;12.98;;;;;;;;;;4993004;28;20041;-38
2022/01/14 08:41:39;;;;;;;24.48;13.70;;;;;;;;;;4993162;28;20046;-45
2022/01/14 08:44:06;;;;;;;21.02;13.23;;;;;;;;;;4993167;28;20027;-43
2022/01/14 08:46:31;;;;;;;23.98;14.15;;;;;;;;;;4991302;28;20038;-37
2022/01/14 08:48:59;;;;;;;22.00;12.95;;;;;;;;;;4991500;28;20025;-39
2022/01/14 08:51:27;;;;;;;27.52;15.10;;;;;;;;;;4990871;28;20077;-37
2022/01/14 08:53:53;;;;;;;23.85;13.98;;;;;;;;;;4991037;28;20431;-37
2022/01/14 08:56:19;;;;;;;25.90;13.48;;;;;;;;;;4989733;28;20111;-36
2022/01/14 08:58:44;;;;;;;23.30;13.65;;;;;;;;;;4991269;28;20053;-44
2022/01/14 09:01:10;;;;;;;23.17;13.73;;;;;;;;;;4991054;28;20027;-41
2022/01/14 09:03:35;;;;;;;29.65;16.20;;;;;;;;;;4991066;28;20113;-44
2022/01/14 09:06:01;;;;;;;28.25;16.27;;;;;;;;;;4991432;28;20034;-39
2022/01/14 09:08:26;;;;;;;24.65;14.00;;;;;;;;;;4992505;28;20026;-45
2022/01/14 09:10:52;;;;;;;23.33;13.52;;;;;;;;;;4992889;28;20161;-36
2022/01/14 09:13:17;;;;;;;22.77;13.35;;;;;;;;;;4992700;28;20030;-37
2022/01/14 09:15:44;;;;;;;23.63;13.60;;;;;;;;;;4992928;28;20065;-37
2022/01/14 09:18:09;;;;;;;21.17;13.32;;;;;;;;;;4989722;28;20424;-46
2022/01/14 09:20:34;;;;;;;24.40;13.85;;;;;;;;;;4991089;28;20069;-43
2022/01/14 09:23:00;;;;;;;22.60;13.73;;;;;;;;;;4991928;28;20022;-47
2022/01/14 09:25:26;;;;;;;23.55;13.77;;;;;;;;;;4991958;28;20025;-37
2022/01/14 09:27:52;;;;;;;24.95;14.52;;;;;;;;;;4992462;28;20471;-43
2022/01/14 09:30:20;;;;;;;21.15;14.30;;;;;;;;;;4992661;28;20022;-37
2022/01/14 09:32:46;;;;;;;28.35;16.05;;;;;;;;;;4992611;28;20113;-39
2022/01/14 09:35:13;;;;;;;19.30;12.95;;;;;;;;;;4993849;28;20499;-40
2022/01/14 09:37:41;;;;;;;23.90;14.45;;;;;;;;;;4995584;28;20110;-37
2022/01/14 09:40:07;;;;;;;17.45;11.73;;;;;;;;;;4994517;28;20533;-45
2022/01/14 09:42:33;;;;;;;19.52;14.27;;;;;;;;;;4994658;28;20045;-44
2022/01/14 09:44:59;;;;;;;22.70;14.63;;;;;;;;;;4993867;28;20030;-44
2022/01/14 09:47:24;;;;;;;23.95;14.70;;;;;;;;;;4994579;28;20041;-37
2022/01/14 09:49:50;;;;;;;21.77;12.88;;;;;;;;;;4995950;28;20114;-37
2022/01/14 09:52:17;;;;;;;20.48;11.75;;;;;;;;;;4995748;28;20386;-39
2022/01/14 09:54:47;;;;;;;20.00;12.55;;;;;;;;;;4994945;28;20034;-48
2022/01/14 09:57:16;;;;;;;;;;;;;;;;;;4995514;28;20039;-48
2022/01/14 09:59:41;;;;;;;19.15;11.88;;;;;;;;;;4995786;28;19914;-47
2022/01/14 10:02:07;;;;;;;22.17;12.27;;;;;;;;;;4995024;28;20018;-46
2022/01/14 10:04:32;;;;;;;16.95;12.02;;;;;;;;;;4995163;28;20065;-40
2022/01/14 10:07:00;;;;;;;20.75;12.75;;;;;;;;;;4994684;28;20390;-39
2022/01/14 10:09:40;;;;;;;21.35;13.52;;;;;;;;;;4994739;28;20363;-37
2022/01/14 10:12:13;;;;;;;24.85;15.30;;;;;;;;;;4994705;28;20076;-40
2022/01/14 10:14:56;;;;;;;25.13;14.13;;;;;;;;;;4994557;28;20078;-46
2022/01/14 10:17:22;;;;;;;27.35;15.00;;;;;;;;;;4992643;28;20386;-46
2022/01/14 10:19:48;;;;;;;26.15;13.77;;;;;;;;;;4993614;28;20026;-47
2022/01/14 10:22:29;;;;;;;25.30;14.68;;;;;;;;;;4994866;28;20029;-44
2022/01/14 10:25:05;;;;;;;23.08;14.63;;;;;;;;;;4994199;28;20072;-49
2022/01/14 10:27:38;;;;;;;27.40;17.10;;;;;;;;;;4995191;28;20133;-37
2022/01/14 10:30:18;;;;;;;22.08;13.88;;;;;;;;;;4994515;28;20038;-45
2022/01/14 10:32:46;;;;;;;27.38;14.90;;;;;;;;;;4992718;28;20030;-48
2022/01/14 10:35:15;;;;;;;20.08;13.25;;;;;;;;;;4994882;28;20038;-45
2022/01/14 10:37:40;;;;;;;18.77;10.70;;;;;;;;;;4994426;28;20026;-46
2022/01/14 10:40:13;;;;;;;18.55;11.10;;;;;;;;;;4994200;28;20018;-42
2022/01/14 10:42:40;;;;;;;20.83;12.48;;;;;;;;;;4994924;28;20041;-46
2022/01/14 10:45:22;;;;;;;13.57;9.63;;;;;;;;;;4994609;28;20030;-37
2022/01/14 10:48:02;;;;;;;17.48;11.13;;;;;;;;;;4994186;28;20057;-44
2022/01/14 10:50:38;;;;;;;;;;;;;;;;;;4994871;28;20037;-40
2022/01/14 10:53:29;;;;;;;13.75;8.70;;;;;;;;;;4994648;28;20004;-40
2022/01/14 10:56:09;;;;;;;14.48;10.05;;;;;;;;;;4989336;28;20576;-48
2022/01/14 10:58:43;;;;;;;18.67;8.63;;;;;;;;;;4993064;28;20481;-39
2022/01/14 11:01:12;;;;;;;15.80;9.77;;;;;;;;;;4994704;28;20026;-38
2022/01/14 11:03:40;;;;;;;11.18;7.20;;;;;;;;;;4993526;28;20026;-38
2022/01/14 11:06:26;;;;;;;12.18;8.00;;;;;;;;;;4992978;28;20034;-45
2022/01/14 11:09:04;;;;;;;12.25;8.27;;;;;;;;;;4994184;28;20022;-48
2022/01/14 11:11:32;;;;;;;11.95;8.07;;;;;;;;;;4994421;28;20031;-43
2022/01/14 11:13:58;;;;;;;11.73;7.38;;;;;;;;;;4993988;28;20034;-44
2022/01/14 11:16:24;;;;;;;13.25;8.00;;;;;;;;;;4994284;28;20031;-44
2022/01/14 11:18:50;;;;;;;11.55;7.47;;;;;;;;;;4993849;28;20031;-43
2022/01/14 11:24:04;;;;;;;12.88;7.80;;;;;;;;;;4994070;28;20395;-45
2022/01/14 11:26:34;;;;;;;13.23;7.90;;;;;;;;;;4993967;28;20089;-49
2022/01/14 11:29:15;;;;;;;10.27;6.77;;;;;;;;;;4994111;28;20034;-47
2022/01/14 11:31:42;;;;;;;11.65;7.40;;;;;;;;;;4994062;28;20331;-49
2022/01/14 11:34:32;;;;;;;11.95;7.15;;;;;;;;;;4993192;28;20034;-45
2022/01/14 11:37:00;;;;;;;9.65;6.18;;;;;;;;;;4993772;28;20026;-46
2022/01/14 11:39:31;;;;;;;8.20;4.82;;;;;;;;;;4993668;28;20145;-42
2022/01/14 11:42:05;;;;;;;7.00;4.88;;;;;;;;;;4993752;28;20053;-44
2022/01/14 11:44:52;;;;;;;7.85;4.35;;;;;;;;;;4993846;28;20046;-47
2022/01/14 11:47:36;;;;;;;7.95;4.70;;;;;;;;;;4993511;28;20034;-44
2022/01/14 11:50:05;;;;;;;10.30;5.47;;;;;;;;;;4993878;28;20351;-44
2022/01/14 11:52:42;;;;;;;8.95;5.47;;;;;;;;;;4993411;28;20030;-47
2022/01/14 11:55:23;;;;;;;11.20;5.82;;;;;;;;;;4993065;28;20034;-41
2022/01/14 11:57:54;;;;;;;9.27;5.53;;;;;;;;;;4992717;28;20038;-42
2022/01/14 12:03:06;;;;;;;7.28;4.85;;;;;;;;;;4993273;28;20053;-40
2022/01/14 12:05:32;;;;;;;17.08;6.85;;;;;;;;;;4993310;28;20050;-44
2022/01/14 12:08:22;;;;;;;10.40;6.45;;;;;;;;;;4992951;28;20023;-45
2022/01/14 12:10:50;;;;;;;10.07;5.80;;;;;;;;;;4992717;28;20037;-43
2022/01/14 12:13:43;;;;;;;13.15;6.57;;;;;;;;;;4990524;28;20609;-46
2022/01/14 12:18:58;;;;;;;10.33;6.50;;;;;;;;;;4992400;28;20026;-43
2022/01/14 12:21:51;;;;;;;11.80;5.10;;;;;;;;;;4992966;28;20033;-42
2022/01/14 12:24:27;;;;;;;11.68;5.43;;;;;;;;;;4992979;28;20068;-47
2022/01/14 12:26:58;;;;;;;9.77;5.90;;;;;;;;;;4993022;28;20493;-49
2022/01/14 12:29:37;;;;;;;10.95;5.93;;;;;;;;;;4993236;28;20038;-43
2022/01/14 12:32:03;;;;;;;7.95;5.53;;;;;;;;;;4992920;28;20066;-47
2022/01/14 12:34:33;;;;;;;15.65;5.88;;;;;;;;;;4991489;28;20026;-46
2022/01/14 12:36:59;;;;;;;11.98;7.88;;;;;;;;;;4993095;28;20034;-49
2022/01/14 12:39:25;;;;;;;8.80;6.05;;;;;;;;;;4993082;28;20364;-49
2022/01/14 12:41:55;;;;;;;8.30;5.38;;;;;;;;;;4992851;28;20391;-50
2022/01/14 12:44:22;;;;;;;16.10;5.15;;;;;;;;;;4992731;28;20516;-47
2022/01/14 12:46:58;;;;;;;11.50;4.93;;;;;;;;;;4993011;28;20046;-49
2022/01/14 12:49:38;;;;;;;14.40;9.57;;;;;;;;;;4992826;28;20482;-45
2022/01/14 12:52:06;;;;;;;17.23;8.75;;;;;;;;;;4993266;28;20037;-48
2022/01/14 12:54:35;;;;;;;22.92;12.82;;;;;;;;;;4992683;28;20030;-48
2022/01/14 12:57:02;;;;;;;15.23;7.30;;;;;;;;;;4992374;28;20050;-42
2022/01/14 12:59:28;;;;;;;7.55;4.57;;;;;;;;;;4993032;28;20030;-50
2022/01/14 13:01:55;;;;;;;9.75;5.22;;;;;;;;;;4992922;28;20053;-44
2022/01/14 13:04:22;;;;;;;9.20;5.13;;;;;;;;;;4992665;28;20034;-48
2022/01/14 13:06:56;;;;;;;14.32;4.88;;;;;;;;;;4992812;28;20378;-47
2022/01/14 13:09:31;;;;;;;8.25;4.90;;;;;;;;;;4993164;28;20033;-48
2022/01/14 13:11:59;;;;;;;9.25;5.57;;;;;;;;;;4996295;28;20113;-43
2022/01/14 13:14:27;;;;;;;11.10;5.88;;;;;;;;;;4996292;28;20026;-44
2022/01/14 13:16:54;;;;;;;13.10;5.70;;;;;;;;;;4996654;28;20393;-48
2022/01/14 13:19:24;;;;;;;8.93;5.03;;;;;;;;;;4996384;28;20022;-48
2022/01/14 13:21:50;;;;;;;13.23;5.38;;;;;;;;;;4996145;28;20038;-46
2022/01/14 13:24:30;;;;;;;9.55;5.38;;;;;;;;;;4996482;28;20026;-48
2022/01/14 13:27:07;;;;;;;7.18;5.15;;;;;;;;;;4995894;28;20521;-42
2022/01/14 13:29:58;;;;;;;10.80;5.82;;;;;;;;;;4996075;28;20078;-48
2022/01/14 13:32:28;;;;;;;11.75;5.72;;;;;;;;;;4996323;28;20030;-43
2022/01/14 13:35:05;;;;;;;8.40;4.95;;;;;;;;;;4996164;28;20022;-50
2022/01/14 13:37:31;;;;;;;9.55;5.05;;;;;;;;;;4996018;28;20367;-45
2022/01/14 13:40:06;;;;;;;13.07;5.90;;;;;;;;;;4996088;28;20037;-43
2022/01/14 13:42:31;;;;;;;15.82;6.57;;;;;;;;;;4995745;28;20022;-47
2022/01/14 13:45:05;;;;;;;11.32;5.93;;;;;;;;;;4995858;28;20018;-44
2022/01/14 13:47:34;;;;;;;12.63;5.72;;;;;;;;;;4995542;28;20113;-49
2022/01/14 13:50:19;;;;;;;14.77;6.57;;;;;;;;;;4995531;28;20026;-49
2022/01/14 13:52:47;;;;;;;14.52;6.05;;;;;;;;;;4995755;28;20049;-51
2022/01/14 13:55:14;;;;;;;12.80;5.82;;;;;;;;;;4995571;28;20113;-41
2022/01/14 13:57:41;;;;;;;11.63;5.88;;;;;;;;;;4995822;28;20029;-47
2022/01/14 14:00:12;;;;;;;13.35;5.78;;;;;;;;;;4995772;28;20117;-49
2022/01/14 14:02:51;;;;;;;13.85;6.00;;;;;;;;;;4995615;28;20172;-42
2022/01/14 14:05:59;;;;;;;11.60;5.57;;;;;;;;;;4995632;28;20034;-41
2022/01/14 14:08:44;;;;;;;10.18;5.35;;;;;;;;;;4954182;29;20031;-51
2022/01/14 14:16:51;;;;;;;17.13;7.82;;;;;;;;;;4995525;28;20037;-45
2022/01/14 14:19:17;;;;;;;28.63;12.50;;;;;;;;;;4995198;28;20061;-44
2022/01/14 14:21:45;;;;;;;14.57;8.75;;;;;;;;;;4994314;28;20050;-49
2022/01/14 14:24:13;;;;;;;14.27;7.22;;;;;;;;;;4995264;28;20367;-45
2022/01/14 14:26:42;;;;;;;13.52;6.32;;;;;;;;;;4995245;28;20065;-50
2022/01/14 14:29:28;;;;;;;11.90;6.30;;;;;;;;;;4995282;28;20026;-44
2022/01/14 14:31:54;;;;;;;14.18;6.72;;;;;;;;;;4994967;28;20501;-43
2022/01/14 14:34:19;;;;;;;18.45;6.10;;;;;;;;;;4994804;28;20022;-49
2022/01/14 14:36:45;;;;;;;15.88;6.65;;;;;;;;;;4994678;28;20062;-48
2022/01/14 14:39:11;;;;;;;11.82;5.80;;;;;;;;;;4994993;28;20065;-44
2022/01/14 14:41:39;;;;;;;15.10;6.05;;;;;;;;;;4994468;28;20467;-50
2022/01/14 14:44:05;;;;;;;16.50;6.57;;;;;;;;;;4994470;28;20098;-40
2022/01/14 14:46:31;;;;;;;11.10;5.65;;;;;;;;;;4994351;28;20080;-47
2022/01/14 14:48:57;;;;;;;11.25;5.55;;;;;;;;;;4994822;28;20030;-46
2022/01/14 14:51:23;;;;;;;12.98;5.90;;;;;;;;;;4994519;28;20037;-42
2022/01/14 14:53:48;;;;;;;11.43;6.22;;;;;;;;;;4994808;28;20041;-51
2022/01/14 14:56:15;;;;;;;11.10;5.82;;;;;;;;;;4994121;28;20544;-47
2022/01/14 14:58:40;;;;;;;13.82;7.10;;;;;;;;;;4994233;28;20447;-46
2022/01/14 15:01:09;;;;;;;14.35;6.15;;;;;;;;;;4994574;28;20066;-45
2022/01/14 15:03:39;;;;;;;11.35;5.95;;;;;;;;;;4994298;28;20117;-49
2022/01/14 15:06:06;;;;;;;16.75;5.30;;;;;;;;;;4994362;28;20030;-44
2022/01/14 15:08:31;;;;;;;13.82;5.50;;;;;;;;;;4994167;28;20570;-41